createdAt,value
2022-08-29T00:00:18.108Z,7.97
2022-08-29T00:02:47.379Z,9.55
2022-08-29T00:05:16.617Z,7.75
2022-08-29T00:07:44.235Z,7.22
2022-08-29T00:10:12.172Z,6.65
2022-08-29T00:12:39.783Z,8.38
2022-08-29T00:15:10.107Z,8.40
2022-08-29T00:17:37.702Z,7.80
2022-08-29T00:20:06.716Z,7.35
2022-08-29T00:22:35.698Z,7.47
2022-08-29T00:25:04.921Z,7.40
2022-08-29T00:27:33.079Z,8.20
2022-08-29T00:30:00.797Z,6.97
2022-08-29T00:32:34.985Z,7.20
2022-08-29T00:35:02.780Z,7.50
2022-08-29T00:37:30.394Z,7.35
2022-08-29T00:39:59.434Z,7.13
2022-08-29T00:42:27.836Z,7.45
2022-08-29T00:44:55.391Z,7.93
2022-08-29T00:47:30.175Z,6.72
2022-08-29T00:49:58.245Z,7.30
2022-08-29T00:52:32.139Z,6.57
2022-08-29T00:55:03.341Z,7.43
2022-08-29T00:57:33.504Z,7.65
2022-08-29T01:00:01.657Z,7.13
2022-08-29T01:02:29.445Z,7.40
2022-08-29T01:04:57.867Z,6.95
2022-08-29T01:07:25.430Z,7.45
2022-08-29T01:09:54.034Z,7.28
2022-08-29T01:12:23.296Z,7.55
2022-08-29T01:14:53.508Z,7.80
2022-08-29T01:17:24.204Z,6.93
2022-08-29T01:19:57.153Z,7.60
2022-08-29T01:22:44.405Z,7.15
2022-08-29T01:25:17.139Z,7.35
2022-08-29T01:27:48.969Z,7.00
2022-08-29T01:30:16.580Z,7.38
2022-08-29T01:32:44.220Z,6.90
2022-08-29T01:35:12.167Z,7.28
2022-08-29T01:37:43.022Z,7.65
2022-08-29T01:40:11.615Z,8.63
2022-08-29T01:42:40.900Z,7.20
2022-08-29T01:45:10.251Z,8.45
2022-08-29T01:47:39.963Z,6.97
2022-08-29T01:50:12.745Z,7.57
2022-08-29T01:52:41.943Z,6.88
2022-08-29T01:55:09.804Z,7.88
2022-08-29T01:57:38.169Z,7.40
2022-08-29T02:00:10.446Z,6.47
2022-08-29T02:02:40.328Z,7.38
2022-08-29T02:05:09.548Z,6.90
2022-08-29T02:07:37.132Z,7.63
2022-08-29T02:10:06.205Z,7.35
2022-08-29T02:12:34.434Z,7.05
2022-08-29T02:15:02.334Z,7.82
2022-08-29T02:17:31.277Z,6.78
2022-08-29T02:19:59.228Z,7.65
2022-08-29T02:22:26.812Z,7.40
2022-08-29T02:24:54.411Z,7.13
2022-08-29T02:27:22.040Z,6.78
2022-08-29T02:29:49.653Z,6.88
2022-08-29T02:32:17.432Z,7.18
2022-08-29T02:34:47.631Z,6.53
2022-08-29T02:37:16.892Z,7.97
2022-08-29T02:39:44.610Z,6.53
2022-08-29T02:42:12.153Z,7.03
2022-08-29T02:44:39.789Z,6.78
2022-08-29T02:47:09.092Z,7.38
2022-08-29T02:49:36.810Z,7.00
2022-08-29T02:52:08.482Z,7.47
2022-08-29T02:54:36.519Z,7.30
2022-08-29T02:57:04.323Z,7.68
2022-08-29T02:59:31.898Z,7.20
2022-08-29T03:01:59.563Z,7.10
2022-08-29T03:04:27.167Z,7.57
2022-08-29T03:06:55.801Z,6.93
2022-08-29T03:09:24.680Z,7.00
2022-08-29T03:11:56.076Z,7.28
2022-08-29T03:14:24.030Z,7.70
2022-08-29T03:16:51.582Z,7.18
2022-08-29T03:19:19.346Z,8.20
2022-08-29T03:21:47.696Z,9.23
2022-08-29T03:24:15.685Z,8.55
2022-08-29T03:26:45.014Z,7.65
2022-08-29T03:29:22.254Z,7.50
2022-08-29T03:31:49.836Z,7.50
2022-08-29T03:34:17.379Z,7.72
2022-08-29T03:36:44.929Z,8.60
2022-08-29T03:39:12.459Z,6.75
2022-08-29T03:41:40.563Z,6.65
2022-08-29T03:44:09.869Z,6.97
2022-08-29T03:46:39.214Z,5.90
2022-08-29T03:49:08.015Z,5.75
2022-08-29T03:51:36.463Z,7.07
2022-08-29T03:54:04.307Z,6.15
2022-08-29T03:56:32.150Z,6.40
2022-08-29T03:59:00.217Z,6.95
2022-08-29T04:01:29.945Z,6.53
2022-08-29T04:03:58.593Z,6.60
2022-08-29T04:06:28.257Z,6.88
2022-08-29T04:08:56.640Z,6.32
2022-08-29T04:11:25.762Z,7.38
2022-08-29T04:13:54.217Z,6.90
2022-08-29T04:16:24.645Z,6.72
2022-08-29T04:18:56.783Z,6.88
2022-08-29T04:21:25.818Z,6.85
2022-08-29T04:23:55.088Z,6.65
2022-08-29T04:26:38.483Z,6.55
2022-08-29T04:29:06.700Z,7.18
2022-08-29T04:31:35.297Z,6.88
2022-08-29T04:34:04.404Z,6.75
2022-08-29T04:36:32.050Z,7.03
2022-08-29T04:38:59.611Z,6.07
2022-08-29T04:41:27.190Z,7.68
2022-08-29T04:43:54.735Z,6.32
2022-08-29T04:46:24.527Z,6.18
2022-08-29T04:48:53.047Z,6.75
2022-08-29T04:51:22.769Z,5.90
2022-08-29T04:53:52.357Z,6.13
2022-08-29T04:56:21.231Z,6.43
2022-08-29T04:58:50.491Z,6.90
2022-08-29T05:01:20.982Z,5.95
2022-08-29T05:03:49.526Z,6.68
2022-08-29T05:06:22.457Z,6.40
2022-08-29T05:08:59.353Z,7.47
2022-08-29T05:11:30.308Z,7.40
2022-08-29T05:13:58.992Z,6.90
2022-08-29T05:16:30.199Z,6.47
2022-08-29T05:18:59.933Z,7.07
2022-08-29T05:21:34.917Z,7.07
2022-08-29T05:24:07.804Z,7.28
2022-08-29T05:26:37.983Z,7.03
2022-08-29T05:29:08.906Z,6.75
2022-08-29T05:31:38.098Z,7.57
2022-08-29T05:34:27.878Z,7.38
2022-08-29T05:36:54.886Z,6.43
2022-08-29T05:39:24.544Z,7.40
2022-08-29T05:41:56.238Z,7.05
2022-08-29T05:44:24.638Z,6.72
2022-08-29T05:46:52.786Z,8.82
2022-08-29T05:49:21.228Z,8.43
2022-08-29T05:51:49.618Z,10.13
2022-08-29T05:54:18.046Z,10.38
2022-08-29T05:56:47.720Z,9.80
2022-08-29T05:59:17.656Z,10.57
2022-08-29T06:01:47.054Z,9.70
2022-08-29T06:04:15.401Z,9.52
2022-08-29T06:06:43.641Z,8.68
2022-08-29T06:09:13.951Z,10.32
2022-08-29T06:11:42.475Z,9.80
2022-08-29T06:14:12.285Z,9.32
2022-08-29T06:16:40.981Z,9.20
2022-08-29T06:19:10.094Z,9.70
2022-08-29T06:21:38.565Z,9.95
2022-08-29T06:24:07.844Z,9.57
2022-08-29T06:26:37.129Z,9.55
2022-08-29T06:29:07.612Z,8.82
2022-08-29T06:31:37.862Z,9.90
2022-08-29T06:34:08.152Z,9.07
2022-08-29T06:36:37.333Z,8.68
2022-08-29T06:39:08.416Z,9.05
2022-08-29T06:41:38.259Z,10.02
2022-08-29T06:44:06.811Z,10.02
2022-08-29T06:46:38.764Z,9.75
2022-08-29T06:49:09.406Z,9.35
2022-08-29T06:51:39.176Z,10.30
2022-08-29T06:54:10.322Z,9.57
2022-08-29T06:56:42.378Z,9.70
2022-08-29T06:59:11.671Z,8.80
2022-08-29T07:01:42.986Z,9.52
2022-08-29T07:04:14.673Z,9.57
2022-08-29T07:06:45.375Z,8.95
2022-08-29T07:09:14.889Z,9.60
2022-08-29T07:11:44.351Z,9.88
2022-08-29T07:14:14.316Z,8.15
2022-08-29T07:16:44.857Z,9.43
2022-08-29T07:19:13.618Z,10.23
2022-08-29T07:21:43.169Z,9.93
2022-08-29T07:24:12.521Z,8.38
2022-08-29T07:26:44.267Z,8.80
2022-08-29T07:29:15.837Z,9.57
2022-08-29T07:31:46.702Z,8.23
2022-08-29T07:34:15.827Z,8.13
2022-08-29T07:36:44.993Z,9.07
2022-08-29T07:39:17.662Z,8.40
2022-08-29T07:41:47.419Z,8.05
2022-08-29T07:44:21.065Z,8.98
2022-08-29T07:46:56.127Z,7.95
2022-08-29T07:49:40.309Z,8.18
2022-08-29T07:52:11.103Z,7.97
2022-08-29T07:54:55.998Z,7.78
2022-08-29T07:57:28.210Z,7.93
2022-08-29T07:59:59.843Z,7.80
2022-08-29T08:02:33.080Z,7.38
2022-08-29T08:05:05.964Z,6.75
2022-08-29T08:07:40.118Z,7.43
2022-08-29T08:10:15.000Z,7.10
2022-08-29T08:12:47.940Z,6.88
2022-08-29T08:15:24.368Z,6.07
2022-08-29T08:18:15.016Z,6.72
2022-08-29T09:10:15.950Z,4.97
2022-08-29T09:12:58.490Z,5.53
2022-08-29T09:15:34.195Z,5.22
2022-08-29T09:18:05.563Z,4.68
2022-08-29T09:20:35.518Z,5.07
2022-08-29T09:23:12.142Z,4.95
2022-08-29T09:25:41.153Z,4.45
2022-08-29T09:28:10.123Z,5.18
2022-08-29T09:30:41.355Z,4.90
2022-08-29T09:33:12.260Z,4.60
2022-08-29T09:35:43.474Z,4.15
2022-08-29T09:38:21.283Z,4.50
2022-08-29T09:40:57.191Z,4.72
2022-08-29T09:43:28.454Z,4.55
2022-08-29T09:46:14.706Z,4.50
2022-08-29T09:48:44.601Z,4.18
2022-08-29T09:51:16.625Z,3.65
2022-08-29T09:56:21.965Z,4.47
2022-08-29T09:59:01.378Z,4.28
2022-08-29T10:01:30.652Z,3.90
2022-08-29T10:04:01.009Z,4.53
2022-08-29T10:06:32.211Z,4.00
2022-08-29T10:09:03.850Z,3.65
2022-08-29T10:11:39.838Z,3.40
2022-08-29T10:14:12.624Z,4.43
2022-08-29T10:16:46.900Z,3.28
2022-08-29T10:19:19.201Z,4.35
2022-08-29T10:21:58.053Z,4.25
2022-08-29T10:24:42.898Z,4.07
2022-08-29T10:27:23.776Z,4.60
2022-08-29T10:30:03.222Z,3.85
2022-08-29T10:32:44.468Z,3.47
2022-08-29T10:35:16.777Z,4.33
2022-08-29T10:37:53.482Z,3.67
2022-08-29T10:40:27.697Z,3.78
2022-08-29T10:43:13.225Z,3.33
2022-08-29T10:45:54.467Z,3.22
2022-08-29T10:48:30.835Z,3.40
2022-08-29T10:51:11.497Z,3.10
2022-08-29T10:53:42.339Z,3.40
2022-08-29T10:56:18.698Z,3.10
2022-08-29T10:58:59.323Z,3.78
2022-08-29T11:01:31.858Z,3.50
2022-08-29T11:04:17.239Z,3.67
2022-08-29T11:06:50.604Z,3.15
2022-08-29T11:09:22.066Z,3.30
2022-08-29T11:12:03.424Z,3.63
2022-08-29T11:14:40.032Z,3.20
2022-08-29T11:17:11.374Z,3.13
2022-08-29T11:19:50.335Z,3.67
2022-08-29T11:22:21.249Z,3.03
2022-08-29T11:24:57.709Z,3.20
2022-08-29T11:27:34.944Z,3.30
2022-08-29T11:30:08.822Z,3.25
2022-08-29T11:32:46.233Z,3.20
2022-08-29T11:35:22.167Z,2.83
2022-08-29T11:38:37.512Z,3.38
2022-08-29T11:41:29.479Z,2.85
2022-08-29T11:44:08.615Z,2.80
2022-08-29T11:46:42.230Z,3.20
2022-08-29T11:49:25.185Z,3.05
2022-08-29T11:51:56.274Z,3.13
2022-08-29T11:54:51.420Z,3.28
2022-08-29T11:58:03.845Z,2.95
2022-08-29T12:00:45.594Z,8.35
2022-08-29T12:03:53.788Z,7.70
2022-08-29T12:06:53.525Z,3.75
2022-08-29T12:09:45.476Z,3.25
2022-08-29T12:12:35.694Z,2.97
2022-08-29T12:15:23.547Z,3.28
2022-08-29T12:18:02.134Z,3.08
2022-08-29T12:20:41.166Z,3.50
2022-08-29T12:23:20.182Z,3.45
2022-08-29T12:26:04.125Z,3.30
2022-08-29T12:28:45.397Z,3.50
2022-08-29T12:31:21.859Z,3.40
2022-08-29T12:34:11.282Z,3.47
2022-08-29T12:36:53.073Z,3.55
2022-08-29T12:39:33.703Z,3.33
2022-08-29T12:42:20.482Z,4.10
2022-08-29T12:44:49.767Z,3.42
2022-08-29T12:47:27.389Z,3.30
2022-08-29T12:49:58.339Z,3.78
2022-08-29T12:52:28.370Z,2.90
2022-08-29T12:54:58.776Z,3.28
2022-08-29T12:57:31.591Z,3.70
2022-08-29T13:00:00.318Z,4.35
2022-08-29T13:02:31.415Z,3.85
2022-08-29T13:05:00.090Z,3.57
2022-08-29T13:07:30.162Z,3.75
2022-08-29T13:10:01.404Z,3.20
2022-08-29T13:12:31.115Z,3.58
2022-08-29T13:15:02.177Z,3.58
2022-08-29T13:17:34.838Z,3.27
2022-08-29T13:20:41.053Z,3.33
2022-08-29T13:23:19.199Z,2.95
2022-08-29T13:25:52.545Z,3.30
2022-08-29T13:28:30.207Z,3.45
2022-08-29T13:31:24.919Z,3.42
2022-08-29T13:34:17.796Z,3.83
2022-08-29T13:37:07.722Z,3.00
2022-08-29T13:39:44.613Z,3.30
2022-08-29T13:42:23.665Z,3.33
2022-08-29T13:45:10.409Z,3.90
2022-08-29T13:47:48.570Z,3.72
2022-08-29T13:50:16.147Z,3.10
2022-08-29T13:52:43.814Z,3.08
2022-08-29T13:55:11.385Z,3.03
2022-08-29T13:57:42.318Z,3.22
2022-08-29T14:00:13.191Z,2.70
2022-08-29T14:02:45.215Z,3.00
2022-08-29T14:05:14.347Z,3.60
2022-08-29T14:07:44.175Z,3.28
2022-08-29T14:10:13.874Z,2.88
2022-08-29T14:12:42.927Z,3.65
2022-08-29T14:15:12.307Z,3.05
2022-08-29T14:17:41.495Z,3.10
2022-08-29T14:20:10.550Z,3.15
2022-08-29T14:22:38.511Z,3.10
2022-08-29T14:25:07.905Z,3.45
2022-08-29T14:27:35.632Z,3.13
2022-08-29T14:30:06.074Z,2.90
2022-08-29T14:32:33.696Z,3.63
2022-08-29T14:35:01.796Z,3.30
2022-08-29T14:37:29.371Z,3.45
2022-08-29T14:39:57.154Z,3.50
2022-08-29T14:42:25.979Z,3.05
2022-08-29T14:44:53.555Z,3.10
2022-08-29T14:47:22.502Z,3.10
2022-08-29T14:49:50.131Z,3.30
2022-08-29T14:52:17.718Z,3.10
2022-08-29T14:54:45.279Z,3.17
2022-08-29T14:57:12.921Z,3.10
2022-08-29T14:59:40.728Z,3.63
2022-08-29T15:02:10.023Z,2.95
2022-08-29T15:04:39.140Z,3.63
2022-08-29T15:07:07.576Z,3.70
2022-08-29T15:09:45.430Z,3.58
2022-08-29T15:12:39.635Z,3.22
2022-08-29T15:18:02.363Z,3.33
2022-08-29T15:23:58.361Z,3.60
2022-08-29T15:26:37.238Z,3.00
2022-08-29T15:32:16.962Z,3.60
2022-08-29T15:34:51.473Z,3.33
2022-08-29T15:37:29.795Z,2.90
2022-08-29T15:42:58.479Z,2.95
2022-08-29T15:45:27.423Z,3.28
2022-08-29T15:48:00.202Z,3.40
2022-08-29T15:50:29.438Z,3.05
2022-08-29T15:53:00.225Z,3.10
2022-08-29T15:55:28.096Z,3.25
2022-08-29T15:57:55.698Z,2.90
2022-08-29T16:00:29.558Z,3.38
2022-08-29T16:02:59.627Z,3.42
2022-08-29T16:05:27.524Z,3.65
2022-08-29T16:07:55.104Z,3.72
2022-08-29T16:10:24.176Z,3.22
2022-08-29T16:12:51.733Z,3.33
2022-08-29T16:15:19.358Z,3.33
2022-08-29T16:17:46.978Z,3.10
2022-08-29T16:20:15.155Z,3.92
2022-08-29T16:22:44.155Z,3.53
2022-08-29T16:25:13.644Z,3.10
2022-08-29T16:27:43.070Z,3.35
2022-08-29T16:30:11.850Z,3.63
2022-08-29T16:32:39.790Z,3.58
2022-08-29T16:35:08.594Z,3.00
2022-08-29T16:37:37.449Z,3.33
2022-08-29T16:40:07.196Z,3.42
2022-08-29T16:42:35.342Z,3.78
2022-08-29T16:45:06.165Z,3.40
2022-08-29T16:47:33.777Z,3.58
2022-08-29T16:50:01.496Z,3.45
2022-08-29T16:52:31.312Z,3.47
2022-08-29T16:54:59.075Z,3.20
2022-08-29T16:57:26.653Z,3.17
2022-08-29T16:59:54.242Z,3.92
2022-08-29T17:02:23.434Z,3.90
2022-08-29T17:04:51.315Z,3.80
2022-08-29T17:07:19.844Z,3.75
2022-08-29T17:09:46.347Z,4.32
2022-08-29T17:12:12.855Z,4.38
2022-08-29T17:14:39.421Z,5.07
2022-08-29T17:17:07.089Z,3.58
2022-08-29T17:19:36.380Z,3.30
2022-08-29T17:22:04.040Z,5.30
2022-08-29T17:24:31.684Z,5.18
2022-08-29T17:26:59.282Z,4.78
2022-08-29T17:29:26.884Z,3.95
2022-08-29T17:31:54.458Z,3.65
2022-08-29T17:34:23.855Z,3.88
2022-08-29T17:36:52.862Z,4.05
2022-08-29T17:39:20.945Z,3.53
2022-08-29T17:41:50.523Z,3.90
2022-08-29T17:44:18.489Z,3.40
2022-08-29T17:46:46.299Z,3.75
2022-08-29T17:49:13.890Z,3.95
2022-08-29T17:51:43.081Z,3.67
2022-08-29T17:54:14.662Z,4.28
2022-08-29T17:56:44.978Z,4.07
2022-08-29T17:59:12.778Z,4.07
2022-08-29T18:01:40.762Z,3.97
2022-08-29T18:04:08.676Z,4.03
2022-08-29T18:06:36.302Z,3.78
2022-08-29T18:09:04.186Z,4.22
2022-08-29T18:11:33.572Z,3.67
2022-08-29T18:14:01.150Z,4.03
2022-08-29T18:16:28.838Z,4.20
2022-08-29T18:18:56.594Z,4.07
2022-08-29T18:21:24.197Z,4.22
2022-08-29T18:23:51.859Z,3.97
2022-08-29T18:26:19.525Z,4.13
2022-08-29T18:28:48.702Z,3.90
2022-08-29T18:31:18.245Z,4.25
2022-08-29T18:34:00.209Z,4.10
2022-08-29T18:36:28.644Z,4.65
2022-08-29T18:38:56.375Z,4.25
2022-08-29T18:41:23.954Z,4.60
2022-08-29T18:43:53.388Z,4.03
2022-08-29T18:46:21.120Z,5.63
2022-08-29T18:48:49.071Z,4.07
2022-08-29T18:51:16.997Z,4.40
2022-08-29T18:53:45.139Z,4.18
2022-08-29T18:56:13.247Z,4.32
2022-08-29T18:58:44.216Z,4.40
2022-08-29T19:01:16.971Z,4.80
2022-08-29T19:03:56.335Z,4.80
2022-08-29T19:06:25.891Z,4.90
2022-08-29T19:08:54.537Z,4.53
2022-08-29T19:11:22.145Z,5.00
2022-08-29T19:13:52.394Z,5.05
2022-08-29T19:16:22.934Z,5.78
2022-08-29T19:18:51.107Z,5.65
2022-08-29T19:21:18.422Z,6.38
2022-08-29T19:23:52.057Z,5.63
2022-08-29T19:26:23.536Z,6.45
2022-08-29T19:28:54.119Z,6.28
2022-08-29T19:31:27.057Z,6.25
2022-08-29T19:33:54.784Z,5.95
2022-08-29T19:36:23.441Z,5.80
2022-08-29T19:38:51.241Z,6.38
2022-08-29T19:41:19.953Z,5.68
2022-08-29T19:43:47.799Z,6.18
2022-08-29T19:46:18.252Z,5.55
2022-08-29T19:51:32.808Z,6.15
2022-08-29T19:54:03.172Z,6.43
2022-08-29T19:56:33.270Z,6.53
2022-08-29T19:59:01.212Z,6.05
2022-08-29T20:01:29.193Z,6.35
2022-08-29T20:03:58.201Z,5.45
2022-08-29T20:06:25.867Z,6.40
2022-08-29T20:08:54.003Z,5.63
2022-08-29T20:11:24.982Z,5.88
2022-08-29T20:13:56.607Z,5.60
2022-08-29T20:16:27.617Z,5.53
2022-08-29T20:18:55.429Z,6.53
2022-08-29T20:21:25.041Z,6.05
2022-08-29T20:23:57.725Z,5.85
2022-08-29T20:26:27.872Z,6.28
2022-08-29T20:28:55.953Z,6.28
2022-08-29T20:31:23.602Z,6.57
2022-08-29T20:33:51.599Z,5.93
2022-08-29T20:36:39.589Z,6.93
2022-08-29T20:39:10.707Z,6.57
2022-08-29T20:41:38.404Z,6.05
2022-08-29T20:44:09.800Z,5.68
2022-08-29T20:46:40.422Z,5.63
2022-08-29T20:49:08.252Z,5.25
2022-08-29T20:51:36.591Z,5.68
2022-08-29T20:54:04.848Z,5.05
2022-08-29T20:56:33.834Z,5.00
2022-08-29T20:59:01.578Z,4.93
2022-08-29T21:01:29.168Z,5.53
2022-08-29T21:04:14.398Z,4.85
2022-08-29T21:06:48.861Z,4.80
2022-08-29T21:09:16.531Z,4.70
2022-08-29T21:11:45.575Z,4.82
2022-08-29T21:14:13.186Z,5.28
2022-08-29T21:16:40.965Z,4.80
2022-08-29T21:19:09.904Z,4.25
2022-08-29T21:21:39.182Z,4.57
2022-08-29T21:24:07.708Z,4.28
2022-08-29T21:26:35.830Z,4.80
2022-08-29T21:29:05.997Z,5.13
2022-08-29T21:31:34.401Z,4.50
2022-08-29T21:34:06.316Z,4.55
2022-08-29T21:36:35.928Z,4.70
2022-08-29T21:39:05.387Z,4.65
2022-08-29T21:41:34.185Z,5.35
2022-08-29T21:44:01.799Z,5.22
2022-08-29T21:46:32.809Z,4.93
2022-08-29T21:49:02.615Z,5.47
2022-08-29T21:51:32.241Z,5.32
2022-08-29T21:54:00.335Z,5.07
2022-08-29T21:56:31.208Z,5.68
2022-08-29T21:59:00.106Z,4.90
2022-08-29T22:01:33.936Z,4.78
2022-08-29T22:04:04.029Z,4.15
2022-08-29T22:06:35.202Z,4.15
2022-08-29T22:09:03.792Z,4.60
2022-08-29T22:11:37.634Z,4.18
2022-08-29T22:14:07.209Z,4.50
2022-08-29T22:16:37.359Z,5.13
2022-08-29T22:19:09.038Z,4.45
2022-08-29T22:21:39.599Z,5.32
2022-08-29T22:24:10.395Z,4.93
2022-08-29T22:26:39.940Z,5.25
2022-08-29T22:29:11.952Z,6.43
2022-08-29T22:31:42.922Z,6.28
2022-08-29T22:34:12.169Z,5.50
2022-08-29T22:36:40.979Z,5.28
2022-08-29T22:39:09.778Z,5.68
2022-08-29T22:41:38.432Z,5.93
2022-08-29T22:44:52.628Z,4.75
2022-08-29T22:46:59.166Z,4.95
2022-08-29T22:49:33.471Z,4.88
2022-08-29T22:52:02.142Z,4.82
2022-08-29T22:54:36.072Z,4.68
2022-08-29T22:57:05.391Z,4.72
2022-08-29T22:59:35.066Z,4.50
2022-08-29T23:02:05.764Z,4.60
2022-08-29T23:04:34.604Z,4.20
2022-08-29T23:07:03.213Z,4.60
2022-08-29T23:09:33.562Z,4.20
2022-08-29T23:12:04.933Z,4.55
2022-08-29T23:14:33.281Z,4.30
2022-08-29T23:17:01.694Z,4.60
2022-08-29T23:19:32.100Z,4.93
2022-08-29T23:22:02.231Z,4.47
2022-08-29T23:24:30.692Z,5.65
2022-08-29T23:26:59.536Z,5.15
2022-08-29T23:29:29.846Z,5.68
2022-08-29T23:31:58.373Z,6.78
2022-08-29T23:34:26.898Z,6.00
2022-08-29T23:36:56.936Z,5.00
2022-08-29T23:39:25.240Z,5.50
2022-08-29T23:41:53.735Z,5.57
2022-08-29T23:44:22.163Z,5.72
2022-08-29T23:46:50.717Z,5.72
2022-08-29T23:49:19.215Z,6.15
2022-08-29T23:51:47.604Z,6.35
2022-08-29T23:54:18.432Z,5.30
2022-08-29T23:56:46.894Z,4.82
2022-08-29T23:59:35.406Z,6.03
